Time;durP1;ratioP1;P1;durP2;ratioP2;P2;SDS_P1;SDS_P2;PMS_P1;PMS_P2;Temp;Humidity;BMP_temperature;BMP_pressure;BME280_temperature;BME280_humidity;BME280_pressure;Samples;Min_cycle;Max_cycle;Signal;HPM_P1;HPM_P2
2021/11/01 00:02:25;;;;;;;4.82;0.93;;;18.40;83.20;;;;;;5028633;28;20021;-78
2021/11/01 00:04:50;;;;;;;3.88;1.13;;;18.40;83.20;;;;;;5028734;28;20026;-79
2021/11/01 00:07:16;;;;;;;5.55;1.30;;;18.30;83.10;;;;;;5028457;28;20034;-79
2021/11/01 00:09:42;;;;;;;4.85;1.15;;;18.30;83.20;;;;;;5028645;28;20053;-78
2021/11/01 00:12:08;;;;;;;3.38;0.90;;;18.30;83.20;;;;;;5028737;28;20030;-79
2021/11/01 00:14:34;;;;;;;4.97;1.35;;;18.30;83.20;;;;;;5028467;28;20029;-79
2021/11/01 00:16:59;;;;;;;4.95;1.02;;;18.30;83.10;;;;;;5028591;28;20037;-79
2021/11/01 00:19:26;;;;;;;4.40;1.00;;;18.30;83.10;;;;;;5028430;28;20025;-79
2021/11/01 00:21:53;;;;;;;3.45;1.08;;;18.20;83.10;;;;;;5027137;28;20025;-79
2021/11/01 00:24:18;;;;;;;4.50;1.08;;;18.20;83.10;;;;;;5028242;28;20021;-79
2021/11/01 00:26:44;;;;;;;3.85;1.02;;;18.20;83.10;;;;;;5028722;28;20493;-79
2021/11/01 00:29:10;;;;;;;4.75;1.20;;;18.20;84.40;;;;;;5028376;28;20021;-79
2021/11/01 00:31:36;;;;;;;4.68;1.30;;;18.20;84.20;;;;;;5027890;28;20497;-79
2021/11/01 00:34:01;;;;;;;4.93;1.23;;;18.20;84.90;;;;;;5028415;28;20032;-79
2021/11/01 00:36:27;;;;;;;4.93;1.15;;;18.20;85.70;;;;;;5028046;28;20026;-79
2021/11/01 00:38:53;;;;;;;5.15;1.00;;;18.10;86.10;;;;;;5028197;28;20022;-79
2021/11/01 00:41:19;;;;;;;3.33;1.10;;;18.10;86.40;;;;;;5027995;28;20557;-79
2021/11/01 00:43:45;;;;;;;3.80;1.30;;;18.20;86.40;;;;;;5027275;28;20078;-79
2021/11/01 00:46:11;;;;;;;4.60;1.33;;;18.10;86.60;;;;;;5028166;28;20040;-77
2021/11/01 00:48:37;;;;;;;5.95;1.73;;;18.10;86.40;;;;;;5027914;28;20025;-78
2021/11/01 00:51:03;;;;;;;4.65;1.08;;;18.10;86.50;;;;;;5028273;28;20515;-77
2021/11/01 00:53:32;;;;;;;5.32;1.10;;;18.10;86.70;;;;;;5027702;28;20101;-77
2021/11/01 00:56:00;;;;;;;5.85;1.08;;;18.10;86.90;;;;;;5027787;28;20370;-80
2021/11/01 00:58:27;;;;;;;4.25;1.10;;;18.10;87.00;;;;;;5026222;28;20029;-79
2021/11/01 01:00:54;;;;;;;5.32;1.15;;;18.10;87.00;;;;;;5027904;28;20481;-77
2021/11/01 01:03:20;;;;;;;5.55;1.25;;;18.00;86.90;;;;;;5027824;28;20025;-77
2021/11/01 01:05:47;;;;;;;3.55;1.27;;;18.00;87.10;;;;;;5027950;28;20029;-77
2021/11/01 01:08:14;;;;;;;5.20;1.02;;;18.00;87.30;;;;;;5028155;28;20489;-77
2021/11/01 01:10:41;;;;;;;5.55;1.13;;;18.00;87.20;;;;;;5027630;28;20505;-79
2021/11/01 01:13:08;;;;;;;5.50;1.10;;;18.00;87.20;;;;;;5027494;28;20021;-79
2021/11/01 01:15:41;;;;;;;3.90;1.38;;;18.00;87.30;;;;;;5027603;28;20036;-77
2021/11/01 01:18:13;;;;;;;4.13;1.30;;;18.00;87.20;;;;;;5028049;28;20026;-77
2021/11/01 01:20:39;;;;;;;3.22;1.00;;;18.00;87.70;;;;;;5028366;28;20024;-77
2021/11/01 01:23:05;;;;;;;7.53;1.20;;;18.00;86.80;;;;;;5031207;28;20021;-77
2021/11/01 01:25:44;;;;;;;3.17;1.05;;;18.00;86.70;;;;;;5030887;28;20542;-76
2021/11/01 01:28:12;;;;;;;3.95;1.10;;;18.00;86.50;;;;;;5028706;28;20033;-76
2021/11/01 01:30:38;;;;;;;3.55;1.05;;;18.00;86.40;;;;;;5030805;28;20022;-77
2021/11/01 01:33:07;;;;;;;4.88;1.02;;;18.00;86.20;;;;;;5031144;28;20036;-77
2021/11/01 01:35:36;;;;;;;3.75;1.27;;;18.00;86.00;;;;;;5031041;28;20026;-77
2021/11/01 01:38:01;;;;;;;6.35;1.20;;;18.00;85.80;;;;;;5031002;28;20021;-77
2021/11/01 01:40:27;;;;;;;2.70;1.00;;;18.00;85.80;;;;;;5029576;28;20113;-77
2021/11/01 01:42:53;;;;;;;3.70;1.00;;;18.00;85.60;;;;;;5030814;28;20026;-78
2021/11/01 01:45:19;;;;;;;5.05;1.05;;;18.00;85.50;;;;;;5029132;28;20397;-77
2021/11/01 01:47:45;;;;;;;4.00;1.20;;;18.00;85.30;;;;;;5031287;28;20065;-77
2021/11/01 01:50:13;;;;;;;4.75;1.17;;;18.00;85.10;;;;;;5031201;28;20022;-77
2021/11/01 01:52:41;;;;;;;3.65;0.95;;;18.00;84.80;;;;;;5030610;28;20057;-76
2021/11/01 01:55:09;;;;;;;4.93;1.50;;;18.00;84.80;;;;;;5030851;28;20564;-76
2021/11/01 01:57:35;;;;;;;5.30;0.90;;;18.00;84.60;;;;;;5030604;28;20045;-76
2021/11/01 02:00:04;;;;;;;3.75;1.08;;;18.00;84.50;;;;;;5030690;28;20066;-76
2021/11/01 02:02:30;;;;;;;3.65;1.20;;;18.00;84.40;;;;;;5030307;28;20029;-77
2021/11/01 02:04:55;;;;;;;3.88;1.10;;;18.00;84.40;;;;;;5030339;28;20489;-77
2021/11/01 02:07:32;;;;;;;6.20;1.40;;;18.00;84.30;;;;;;5030347;28;20034;-76
2021/11/01 02:10:09;;;;;;;5.40;1.05;;;18.00;84.10;;;;;;5030522;28;20097;-77
2021/11/01 02:12:42;;;;;;;7.38;1.40;;;18.00;84.10;;;;;;5030034;28;20029;-77
2021/11/01 02:15:08;;;;;;;3.25;0.73;;;18.00;84.00;;;;;;5030294;28;20026;-76
2021/11/01 02:17:35;;;;;;;3.83;1.05;;;18.00;83.80;;;;;;5030054;28;20033;-77
2021/11/01 02:20:07;;;;;;;3.30;0.90;;;18.00;83.80;;;;;;5029039;28;20037;-77
2021/11/01 02:22:54;;;;;;;5.38;1.00;;;18.00;83.70;;;;;;5028719;28;20032;-77
2021/11/01 02:26:00;;;;;;;3.10;0.95;;;18.00;83.60;;;;;;5030169;28;20500;-77
2021/11/01 02:28:29;;;;;;;6.53;1.20;;;18.00;83.50;;;;;;5030737;28;20041;-77
2021/11/01 02:30:56;;;;;;;3.33;1.10;;;18.00;83.50;;;;;;5030102;28;20022;-77
2021/11/01 02:33:24;;;;;;;4.35;1.00;;;18.00;83.20;;;;;;5029625;28;20041;-76
2021/11/01 02:35:52;;;;;;;3.95;1.02;;;18.00;83.20;;;;;;5030191;28;20021;-77
2021/11/01 02:38:23;;;;;;;4.68;1.35;;;18.00;83.10;;;;;;5029517;28;20075;-76
2021/11/01 02:40:50;;;;;;;4.03;1.25;;;18.00;83.00;;;;;;5030141;28;20625;-77
2021/11/01 02:43:17;;;;;;;3.45;1.05;;;18.00;82.90;;;;;;5029988;28;20075;-77
2021/11/01 02:45:43;;;;;;;3.00;0.80;;;18.00;82.80;;;;;;5028910;28;20034;-77
2021/11/01 02:48:10;;;;;;;3.47;0.70;;;18.00;82.70;;;;;;5029927;28;20106;-77
2021/11/01 02:50:36;;;;;;;7.75;1.60;;;18.00;82.60;;;;;;5029621;28;20033;-77
2021/11/01 02:53:02;;;;;;;7.60;1.77;;;18.00;82.50;;;;;;5029631;28;20032;-77
2021/11/01 02:55:28;;;;;;;3.97;1.02;;;18.00;82.40;;;;;;5029637;28;20029;-77
2021/11/01 02:57:54;;;;;;;4.63;0.98;;;18.00;82.40;;;;;;5030046;28;20461;-77
2021/11/01 03:00:24;;;;;;;3.72;1.00;;;18.00;82.40;;;;;;5029495;28;20105;-77
2021/11/01 03:02:51;;;;;;;3.08;1.05;;;18.00;82.30;;;;;;5029756;28;20033;-77
2021/11/01 03:05:19;;;;;;;4.57;1.23;;;18.00;82.20;;;;;;5029207;28;20458;-77
2021/11/01 03:07:48;;;;;;;3.45;1.00;;;18.00;82.10;;;;;;5029865;28;20133;-77
2021/11/01 03:10:14;;;;;;;5.55;1.15;;;18.00;82.00;;;;;;5029923;28;20022;-77
2021/11/01 03:12:42;;;;;;;4.43;1.15;;;18.00;82.00;;;;;;5029234;28;20040;-77
2021/11/01 03:15:10;;;;;;;6.15;1.23;;;18.00;82.00;;;;;;5029549;28;20049;-77
2021/11/01 03:17:42;;;;;;;6.75;1.50;;;18.00;81.80;;;;;;5029288;28;20548;-77
2021/11/01 03:20:12;;;;;;;6.22;1.30;;;18.00;81.70;;;;;;5027951;28;20378;-77
2021/11/01 03:22:40;;;;;;;3.80;1.05;;;18.00;81.70;;;;;;5029126;28;20539;-77
2021/11/01 03:25:17;;;;;;;3.47;1.17;;;18.10;81.60;;;;;;5027990;28;20073;-77
2021/11/01 03:27:46;;;;;;;3.92;1.20;;;18.10;81.60;;;;;;5029587;28;20036;-77
2021/11/01 03:30:13;;;;;;;4.97;1.08;;;18.10;81.50;;;;;;5029633;28;20029;-77
2021/11/01 03:32:39;;;;;;;5.00;1.10;;;18.10;81.50;;;;;;5029096;28;20018;-77
2021/11/01 03:35:05;;;;;;;6.10;1.17;;;18.10;81.40;;;;;;5029308;28;20022;-77
2021/11/01 03:37:33;;;;;;;5.32;1.05;;;18.10;81.30;;;;;;5028842;28;20028;-77
2021/11/01 03:39:59;;;;;;;5.18;1.02;;;18.10;81.30;;;;;;5029229;28;20055;-77
2021/11/01 03:42:26;;;;;;;3.67;0.98;;;18.10;81.20;;;;;;5028728;28;20061;-76
2021/11/01 03:44:59;;;;;;;4.00;1.60;;;18.10;81.80;;;;;;5027882;28;20499;-77
2021/11/01 03:47:26;;;;;;;5.03;0.95;;;18.10;81.10;;;;;;5028842;28;20033;-77
2021/11/01 03:49:58;;;;;;;4.13;1.20;;;18.10;81.10;;;;;;5028963;28;20438;-77
2021/11/01 03:52:28;;;;;;;3.85;1.15;;;18.10;81.00;;;;;;5028718;28;20477;-76
2021/11/01 03:54:54;;;;;;;4.88;0.95;;;18.10;81.00;;;;;;5028912;28;20025;-77
2021/11/01 03:57:21;;;;;;;5.13;1.27;;;18.10;80.90;;;;;;5028850;28;20018;-77
2021/11/01 03:59:48;;;;;;;3.30;1.20;;;18.10;81.00;;;;;;5028860;28;20460;-77
2021/11/01 04:02:17;;;;;;;2.53;0.80;;;18.10;81.00;;;;;;5029102;28;20025;-77
2021/11/01 04:04:47;;;;;;;5.30;1.20;;;18.10;80.90;;;;;;5029074;28;20051;-77
2021/11/01 04:07:13;;;;;;;4.65;1.50;;;18.10;80.80;;;;;;5028877;28;20064;-77
2021/11/01 04:09:39;;;;;;;2.97;0.93;;;18.10;80.80;;;;;;5028342;28;20489;-77
2021/11/01 04:12:06;;;;;;;5.57;1.52;;;18.10;80.70;;;;;;5028680;28;20102;-77
2021/11/01 04:14:40;;;;;;;7.03;1.13;;;18.10;80.60;;;;;;5027052;28;20025;-78
2021/11/01 04:17:11;;;;;;;4.57;1.00;;;18.10;80.60;;;;;;5028607;28;20025;-77
2021/11/01 04:19:48;;;;;;;4.93;1.23;;;18.10;80.50;;;;;;5028250;28;20508;-77
2021/11/01 04:22:14;;;;;;;5.63;1.20;;;18.10;80.50;;;;;;5028905;28;20026;-77
2021/11/01 04:24:40;;;;;;;4.25;1.08;;;18.10;80.40;;;;;;5028207;28;20071;-77
2021/11/01 04:27:05;;;;;;;6.55;1.55;;;18.10;80.30;;;;;;5028526;28;20041;-77
2021/11/01 04:29:33;;;;;;;6.78;1.35;;;18.20;80.30;;;;;;5028198;28;20026;-76
2021/11/01 04:32:10;;;;;;;4.85;1.10;;;18.10;80.20;;;;;;5028509;28;20025;-76
2021/11/01 04:34:39;;;;;;;4.30;1.02;;;18.10;80.10;;;;;;5028086;28;20029;-76
2021/11/01 04:37:05;;;;;;;3.58;1.13;;;18.10;80.10;;;;;;5028358;28;20512;-76
2021/11/01 04:39:57;;;;;;;7.28;1.25;;;18.10;80.00;;;;;;5028110;28;20029;-76
2021/11/01 04:53:10;;;;;;;5.25;1.50;;;18.10;79.90;;;;;;5028363;28;20079;-76
2021/11/01 04:55:36;;;;;;;3.53;0.90;;;18.10;79.80;;;;;;5029033;28;20029;-77
2021/11/01 04:58:03;;;;;;;5.20;1.42;;;18.20;79.90;;;;;;5031275;28;20104;-76
2021/11/01 05:00:29;;;;;;;4.57;0.95;;;18.10;79.80;;;;;;5031528;28;20033;-77
2021/11/01 05:03:10;;;;;;;5.40;1.45;;;18.10;79.70;;;;;;5031636;28;20100;-77
2021/11/01 05:05:36;;;;;;;6.03;1.00;;;18.10;79.70;;;;;;5031212;28;20082;-76
2021/11/01 05:08:03;;;;;;;3.97;0.80;;;18.10;79.70;;;;;;5029931;28;20473;-76
2021/11/01 05:10:40;;;;;;;4.13;1.00;;;18.20;79.60;;;;;;5031010;28;20057;-76
2021/11/01 05:13:13;;;;;;;4.28;1.10;;;18.10;79.50;;;;;;5031551;28;20026;-76
2021/11/01 05:15:58;;;;;;;4.20;1.17;;;18.10;79.40;;;;;;5029855;28;20548;-76
2021/11/01 05:20:58;;;;;;;4.63;1.23;;;18.10;79.30;;;;;;5031426;28;20056;-77
2021/11/01 05:23:33;;;;;;;4.22;1.15;;;18.10;79.30;;;;;;5030954;28;20056;-77
2021/11/01 05:26:04;;;;;;;4.30;1.17;;;18.10;79.20;;;;;;5031157;28;20022;-77
2021/11/01 05:28:53;;;;;;;5.70;1.40;;;18.10;79.10;;;;;;5029640;28;20047;-77
2021/11/01 05:31:24;;;;;;;5.13;1.17;;;18.10;79.20;;;;;;5030861;28;20021;-76
2021/11/01 05:36:16;;;;;;;4.25;0.95;;;18.10;79.10;;;;;;5031080;28;20529;-77
2021/11/01 05:38:42;;;;;;;6.20;1.40;;;18.10;79.10;;;;;;5030152;28;20021;-76
2021/11/01 05:41:08;;;;;;;8.95;1.35;;;18.10;79.00;;;;;;5029498;28;20453;-77
2021/11/01 05:43:34;;;;;;;3.92;1.00;;;18.10;79.00;;;;;;5029508;28;20382;-77
2021/11/01 05:46:00;;;;;;;3.92;1.02;;;18.10;79.00;;;;;;5030721;28;20457;-77
2021/11/01 05:48:26;;;;;;;4.07;0.95;;;18.10;79.00;;;;;;5030752;28;20018;-77
2021/11/01 05:50:52;;;;;;;4.13;1.00;;;18.10;79.00;;;;;;5030782;28;20070;-77
2021/11/01 05:53:18;;;;;;;4.40;1.05;;;18.10;79.00;;;;;;5030600;28;20026;-76
2021/11/01 05:55:57;;;;;;;4.15;1.17;;;18.10;79.10;;;;;;5029943;28;20064;-77
2021/11/01 06:03:48;;;;;;;4.15;1.30;;;18.20;79.00;;;;;;5030586;28;20515;-77
2021/11/01 06:14:08;;;;;;;6.47;1.08;;;18.30;78.70;;;;;;5030557;28;20063;-77
2021/11/01 06:16:33;;;;;;;3.65;0.90;;;18.30;78.60;;;;;;5030172;28;20431;-77
2021/11/01 06:18:59;;;;;;;3.97;1.00;;;18.30;78.50;;;;;;5030259;28;20018;-77
2021/11/01 06:21:25;;;;;;;4.93;1.25;;;18.40;78.40;;;;;;5030145;28;20022;-77
2021/11/01 06:23:54;;;;;;;3.10;0.95;;;18.40;78.30;;;;;;5030318;28;20033;-76
2021/11/01 06:26:20;;;;;;;3.70;0.85;;;18.40;78.20;;;;;;5029927;28;20037;-77
2021/11/01 06:28:51;;;;;;;3.42;0.90;;;18.50;78.30;;;;;;5030239;28;20038;-77
2021/11/01 06:31:30;;;;;;;3.03;0.90;;;18.50;78.20;;;;;;5029895;28;20026;-76
2021/11/01 06:34:22;;;;;;;3.55;0.80;;;18.50;78.20;;;;;;5030114;28;20497;-77
2021/11/01 06:42:24;;;;;;;2.70;0.75;;;18.60;78.30;;;;;;5030172;28;20053;-77
2021/11/01 06:58:24;;;;;;;3.80;0.88;;;18.60;78.10;;;;;;5029640;28;20654;-77
2021/11/01 07:14:40;;;;;;;3.30;0.90;;;18.70;77.90;;;;;;5029154;28;20075;-77
2021/11/01 07:17:11;;;;;;;3.58;1.10;;;18.70;77.90;;;;;;5029515;28;20497;-76
2021/11/01 07:25:05;;;;;;;2.45;0.80;;;18.70;77.70;;;;;;5029313;28;20061;-76
2021/11/01 08:25:02;;;;;;;5.38;1.77;;;18.70;77.80;;;;;;5035847;28;20104;-83
2021/11/01 08:34:13;;;;;;;4.85;1.33;;;18.80;77.70;;;;;;5038049;28;20362;-83
2021/11/01 08:49:02;;;;;;;7.60;1.33;;;19.10;77.60;;;;;;5039569;28;20508;-81
2021/11/01 09:02:45;;;;;;;3.90;1.20;;;19.10;77.20;;;;;;5037522;28;20040;-80
2021/11/01 09:09:52;;;;;;;3.25;1.05;;;19.10;76.90;;;;;;5041009;28;20093;-82
2021/11/01 09:26:45;;;;;;;2.67;0.75;;;19.20;76.70;;;;;;5029035;28;20076;-80
2021/11/01 09:42:21;;;;;;;3.20;0.85;;;19.20;76.00;;;;;;5035468;28;20396;-80
2021/11/01 09:44:48;;;;;;;6.38;1.02;;;19.20;75.90;;;;;;5045475;28;20029;-86
2021/11/01 09:47:14;;;;;;;4.07;0.80;;;19.20;76.00;;;;;;5047914;28;20040;-84
2021/11/01 09:49:41;;;;;;;4.32;0.93;;;19.30;75.80;;;;;;5037863;28;20407;-80
2021/11/01 09:52:09;;;;;;;6.78;1.10;;;19.30;76.00;;;;;;5044063;28;20029;-77
2021/11/01 09:54:37;;;;;;;5.05;0.95;;;19.30;76.10;;;;;;5047733;28;20025;-82
2021/11/01 09:57:18;;;;;;;4.72;0.73;;;19.30;76.00;;;;;;5033453;28;20033;-80
2021/11/01 09:59:46;;;;;;;5.28;1.13;;;19.40;76.20;;;;;;5042375;28;20025;-79
2021/11/01 10:02:15;;;;;;;5.03;0.95;;;19.40;76.20;;;;;;5049805;28;20112;-81
2021/11/01 10:04:42;;;;;;;7.15;0.77;;;19.40;76.00;;;;;;5032445;28;20090;-79
2021/11/01 10:07:34;;;;;;;4.65;1.15;;;19.40;75.50;;;;;;5028900;28;20516;-80
2021/11/01 10:10:07;;;;;;;8.00;0.98;;;19.50;75.80;;;;;;5040194;28;20412;-78
2021/11/01 10:12:35;;;;;;;7.25;1.05;;;19.50;75.60;;;;;;5034365;28;20022;-78
2021/11/01 10:18:01;;;;;;;5.43;0.95;;;19.50;75.60;;;;;;5040238;28;20060;-78
2021/11/01 10:20:29;;;;;;;4.90;1.05;;;19.60;75.30;;;;;;5035123;28;20030;-78
2021/11/01 10:22:56;;;;;;;6.38;1.20;;;19.50;75.10;;;;;;5046483;28;20349;-78
2021/11/01 10:25:23;;;;;;;3.08;0.85;;;19.60;75.30;;;;;;5034932;28;20078;-78
2021/11/01 10:27:57;;;;;;;5.63;0.90;;;19.60;75.10;;;;;;5040448;28;20064;-78
2021/11/01 10:30:24;;;;;;;3.90;1.05;;;19.70;74.90;;;;;;5043137;28;20541;-79
2021/11/01 10:32:52;;;;;;;3.97;0.70;;;19.70;74.90;;;;;;5032803;28;20544;-78
2021/11/01 10:35:21;;;;;;;3.42;0.60;;;19.70;74.70;;;;;;5044671;28;20029;-78
2021/11/01 10:38:14;;;;;;;3.85;0.93;;;19.80;74.70;;;;;;5038366;28;20021;-78
2021/11/01 10:40:54;;;;;;;4.88;0.77;;;19.90;74.10;;;;;;5031756;28;20033;-78
2021/11/01 11:11:41;;;;;;;3.65;0.80;;;20.30;72.80;;;;;;5036179;28;20071;-77
2021/11/01 11:47:44;;;;;;;4.80;1.25;;;25.00;57.50;;;;;;5035357;28;20055;-81
2021/11/01 11:50:15;;;;;;;5.07;0.93;;;25.80;56.40;;;;;;5040476;28;20053;-81
2021/11/01 11:52:41;;;;;;;3.88;0.75;;;27.10;56.00;;;;;;5048041;28;20594;-80
2021/11/01 11:55:29;;;;;;;6.60;1.17;;;27.10;52.90;;;;;;5031440;28;20021;-80
2021/11/01 11:57:57;;;;;;;6.13;1.58;;;26.80;55.40;;;;;;5040368;28;20043;-81
2021/11/01 12:00:26;;;;;;;10.60;2.03;;;25.40;56.30;;;;;;5037819;28;20515;-82
2021/11/01 12:02:53;;;;;;;9.32;1.88;;;24.60;58.50;;;;;;5040039;28;20028;-81
2021/11/01 12:05:39;;;;;;;6.65;1.35;;;24.30;60.30;;;;;;5037422;28;20032;-82
2021/11/01 12:08:32;;;;;;;21.17;3.28;;;25.20;60.90;;;;;;5034422;28;20496;-82
2021/11/01 12:19:14;;;;;;;13.98;2.85;;;22.40;67.90;;;;;;5045198;27;20050;-81
2021/11/01 12:21:42;;;;;;;14.40;3.33;;;22.30;68.60;;;;;;5036863;28;20524;-81
2021/11/01 12:24:21;;;;;;;10.05;2.28;;;22.20;68.80;;;;;;5034337;28;20029;-82
2021/11/01 12:26:58;;;;;;;11.30;2.28;;;22.10;69.00;;;;;;5037846;28;20102;-83
2021/11/01 12:29:24;;;;;;;9.00;1.83;;;22.00;69.50;;;;;;5035241;28;20063;-81
2021/11/01 12:32:09;;;;;;;8.98;1.85;;;21.90;70.50;;;;;;5038316;28;20053;-83
2021/11/01 12:34:45;;;;;;;17.23;2.33;;;22.00;70.10;;;;;;5041699;28;20061;-81
2021/11/01 12:37:15;;;;;;;;;;;22.00;70.80;;;;;;5035218;28;20058;-81
2021/11/01 12:57:48;;;;;;;5.45;1.20;;;21.80;72.10;;;;;;5037285;28;20604;-80
2021/11/01 12:59:48;;;;;;;7.78;1.65;;;21.70;72.70;;;;;;5029110;28;20497;-81
2021/11/01 13:02:15;;;;;;;4.53;1.40;;;21.70;72.50;;;;;;5036210;28;20074;-80
2021/11/01 13:04:44;;;;;;;6.70;1.13;;;21.60;72.50;;;;;;5035754;28;20017;-82
2021/11/01 13:07:23;;;;;;;12.82;1.60;;;21.60;72.50;;;;;;5036887;28;20401;-82
2021/11/01 13:09:56;;;;;;;4.47;1.40;;;21.60;72.40;;;;;;5037822;28;20029;-82
2021/11/01 13:15:08;;;;;;;7.68;1.10;;;21.40;72.10;;;;;;5035139;28;20108;-82
2021/11/01 13:20:21;;;;;;;11.18;1.10;;;21.30;72.70;;;;;;5037797;28;20124;-80
2021/11/01 13:22:50;;;;;;;9.73;1.55;;;21.20;73.10;;;;;;5033580;28;20022;-81
2021/11/01 13:25:25;;;;;;;9.48;1.48;;;21.10;73.20;;;;;;5046486;28;20025;-82
2021/11/01 13:38:45;;;;;;;8.02;1.23;;;20.90;72.40;;;;;;5046618;28;20033;-77
2021/11/01 13:41:27;;;;;;;3.58;0.90;;;20.90;72.20;;;;;;5034867;28;20120;-78
2021/11/01 13:43:53;;;;;;;4.85;1.00;;;21.00;72.20;;;;;;5040731;28;20419;-81
2021/11/01 13:46:27;;;;;;;5.40;1.15;;;21.00;71.80;;;;;;5042170;28;20025;-80
2021/11/01 13:48:57;;;;;;;4.13;0.88;;;20.80;71.80;;;;;;5033889;28;20137;-78
2021/11/01 13:51:23;;;;;;;2.72;0.70;;;20.80;71.90;;;;;;5044543;28;20029;-76
2021/11/01 13:56:38;;;;;;;3.78;0.90;;;20.80;72.10;;;;;;5049995;28;20021;-77
2021/11/01 14:02:06;;;;;;;8.38;2.42;;;20.90;71.30;;;;;;5044580;28;20025;-79
2021/11/01 16:18:03;;;;;;;1.17;0.50;;;19.30;75.20;;;;;;5038514;28;20032;-80
2021/11/01 16:20:28;;;;;;;4.13;0.60;;;19.30;75.40;;;;;;5042300;28;20533;-79
2021/11/01 16:23:18;;;;;;;1.30;0.60;;;19.30;75.60;;;;;;5046336;28;20029;-79
2021/11/01 16:25:44;;;;;;;1.98;1.05;;;19.20;76.00;;;;;;5040045;28;20025;-78
2021/11/01 16:28:11;;;;;;;7.47;1.10;;;19.30;75.80;;;;;;5038514;28;20124;-78
2021/11/01 16:30:41;;;;;;;2.85;0.70;;;19.30;75.80;;;;;;5031435;28;20018;-78
2021/11/01 16:33:08;;;;;;;2.83;0.70;;;19.30;75.80;;;;;;5043962;28;20040;-78
2021/11/01 16:35:50;;;;;;;2.10;0.65;;;19.30;75.70;;;;;;5045585;28;20070;-79
2021/11/01 16:38:24;;;;;;;2.63;0.70;;;19.40;75.70;;;;;;5034599;28;20026;-79
2021/11/01 16:40:51;;;;;;;3.08;0.80;;;19.40;75.70;;;;;;5044022;28;20422;-78
2021/11/01 16:43:19;;;;;;;4.45;0.70;;;19.50;75.70;;;;;;5032162;28;20025;-78
2021/11/01 16:45:49;;;;;;;1.35;0.52;;;19.50;75.80;;;;;;5038747;28;20462;-78
2021/11/01 16:48:14;;;;;;;0.90;0.40;;;19.50;75.70;;;;;;5040295;28;20036;-79
2021/11/01 16:50:41;;;;;;;2.95;0.60;;;19.60;75.60;;;;;;5038955;28;20374;-79
2021/11/01 16:53:07;;;;;;;1.42;0.85;;;19.60;75.50;;;;;;5051790;28;20069;-79
2021/11/01 16:55:40;;;;;;;2.50;0.60;;;19.60;75.50;;;;;;5046305;28;20025;-78
2021/11/01 16:58:19;;;;;;;2.92;0.40;;;19.70;75.50;;;;;;5045438;28;20029;-79
2021/11/01 17:00:57;;;;;;;3.00;0.50;;;19.70;76.10;;;;;;5036371;28;20030;-78
2021/11/01 17:06:23;;;;;;;2.20;0.70;;;19.80;75.20;;;;;;5047331;28;20495;-78
2021/11/01 17:22:36;;;;;;;2.15;0.60;;;19.90;74.70;;;;;;5041499;28;20416;-79
2021/11/01 17:25:12;;;;;;;1.50;0.68;;;19.90;74.70;;;;;;5038976;28;20034;-80
2021/11/01 18:44:01;;;;;;;5.05;0.90;;;20.50;73.00;;;;;;5041376;28;20061;-76
2021/11/01 18:50:46;;;;;;;2.63;0.60;;;20.40;73.20;;;;;;5039778;28;20030;-80
2021/11/01 18:52:10;;;;;;;3.58;0.60;;;20.40;74.40;;;;;;5046185;28;20050;-81
2021/11/01 18:54:41;;;;;;;1.13;0.60;;;20.30;73.90;;;;;;5048954;28;20029;-79
2021/11/01 18:57:10;;;;;;;3.03;0.73;;;20.30;74.10;;;;;;5032584;28;20112;-81
2021/11/01 18:59:38;;;;;;;3.28;0.90;;;20.20;74.10;;;;;;5041339;28;20025;-83
2021/11/01 19:04:57;;;;;;;2.00;0.90;;;20.10;73.30;;;;;;5048742;28;20068;-81
2021/11/01 20:05:12;;;;;;;1.50;0.80;;;19.60;73.60;;;;;;5048702;28;20115;-81
2021/11/01 21:25:52;;;;;;;32.63;11.57;;;19.30;75.00;;;;;;5047313;28;20515;-79
2021/11/01 21:28:19;;;;;;;33.17;11.18;;;19.30;74.90;;;;;;5047177;28;20080;-79
2021/11/01 21:30:44;;;;;;;33.03;10.95;;;19.30;74.90;;;;;;5047893;28;20035;-80
2021/11/01 21:33:14;;;;;;;38.80;10.48;;;19.30;75.00;;;;;;5047219;28;20029;-80
2021/11/01 21:35:49;;;;;;;26.67;9.05;;;19.20;74.90;;;;;;5046963;28;20104;-80
2021/11/01 21:38:16;;;;;;;35.33;10.20;;;19.20;74.70;;;;;;5049352;28;20030;-80
2021/11/01 21:40:46;;;;;;;30.63;9.02;;;19.30;74.60;;;;;;5051229;28;20108;-79
2021/11/01 21:43:12;;;;;;;29.15;8.40;;;19.30;74.60;;;;;;5049764;28;20029;-81
2021/11/01 21:45:39;;;;;;;23.85;8.27;;;19.30;74.50;;;;;;5050450;28;20033;-80
2021/11/01 21:48:04;;;;;;;25.77;8.75;;;19.30;74.20;;;;;;5050410;28;20554;-79
2021/11/01 21:50:30;;;;;;;23.55;8.60;;;19.30;74.30;;;;;;5050347;28;20051;-80
2021/11/01 21:52:59;;;;;;;23.75;8.50;;;19.20;74.30;;;;;;5050614;28;20400;-81
2021/11/01 21:55:26;;;;;;;21.83;7.45;;;19.20;74.20;;;;;;5049814;28;20113;-80
2021/11/01 21:58:01;;;;;;;23.48;7.53;;;19.20;74.30;;;;;;5050655;28;20029;-79
2021/11/01 22:33:28;;;;;;;17.23;5.07;;;18.90;74.10;;;;;;5030396;28;20037;-80
2021/11/01 22:57:09;;;;;;;10.88;4.18;;;18.70;74.00;;;;;;5028743;28;20043;-78
2021/11/01 22:59:35;;;;;;;13.07;4.10;;;18.70;74.00;;;;;;5029683;28;20026;-79
2021/11/01 23:02:01;;;;;;;11.00;4.03;;;18.60;73.90;;;;;;5029816;28;20021;-78
2021/11/01 23:31:51;;;;;;;8.75;3.20;;;18.40;73.70;;;;;;5029583;28;20040;-79
2021/11/01 23:34:17;;;;;;;10.23;3.72;;;18.30;73.60;;;;;;5029145;28;20029;-79
2021/11/01 23:36:44;;;;;;;7.70;3.20;;;18.30;73.60;;;;;;5029355;28;20025;-79
2021/11/01 23:39:12;;;;;;;9.25;3.42;;;18.30;73.70;;;;;;5029318;28;20477;-79
2021/11/01 23:41:43;;;;;;;8.57;3.13;;;18.30;73.60;;;;;;5029077;28;20029;-79
2021/11/01 23:44:09;;;;;;;8.85;3.42;;;18.30;73.60;;;;;;5029246;28;20032;-79
2021/11/01 23:46:34;;;;;;;8.60;3.08;;;18.20;73.60;;;;;;5028536;28;20034;-79
2021/11/01 23:49:00;;;;;;;9.00;3.15;;;18.20;73.50;;;;;;5029104;28;20033;-78
2021/11/01 23:51:33;;;;;;;7.97;3.00;;;18.20;73.60;;;;;;5029124;28;20018;-79
2021/11/01 23:56:34;;;;;;;8.23;2.92;;;18.20;73.60;;;;;;5028898;28;20033;-80
2021/11/01 23:59:00;;;;;;;9.27;3.05;;;18.10;73.50;;;;;;5029223;28;20401;-79
